Sigas Ingrid — VRCQ6 — position and weather

sailwx.info

Track history (hours):
 
Tides and Currents Weather Stations Pressure Air Temp Water Temp Dewpoint Dewpoint Depression Visibility Wind Speed Wind Dir Waves Ship Positions

Sigas Ingrid

Last reported at 2017-Nov-18 13:56 UTC. Time now 2017-Nov-22 14:58 UTC.
Position N 01°19' E 103°19'.

Length 100 m; draft 5.4 m.

Type: Ship (hazmat cat B). MMSI: 477658800.

Date/timePositionNaut miles runAvg speedWind from/ knotsBaromVisibWave heightAir tempDewpointWater temp
2017-Nov-18 13:56N 01°19' E 103°19'512.3
2017-Nov-18 13:30N 01°16' E 103°23'612.7
2017-Nov-18 13:00N 01°14' E 103°29'612.6
2017-Nov-18 12:30N 01°12' E 103°35'4 8.8
2017-Nov-18 12:00N 01°09' E 103°38'0 0.1
2017-Nov-18 10:04N 01°09' E 103°38'0 0.1
2017-Nov-18 08:58N 01°09' E 103°38'0 0.0
2017-Nov-18 08:28N 01°09' E 103°38'0 0.0
2017-Nov-18 07:58N 01°09' E 103°38'0 0.1
2017-Nov-18 07:28N 01°09' E 103°38'0 0.0
2017-Nov-18 06:55N 01°09' E 103°38'0 0.0
2017-Nov-18 06:25N 01°09' E 103°38'0 0.0
2017-Nov-18 05:58N 01°09' E 103°38'0 0.0
2017-Nov-18 05:28N 01°09' E 103°38'0 0.0
2017-Nov-18 04:52N 01°09' E 103°38'0 0.0
2017-Nov-18 04:28N 01°09' E 103°38'0 0.0
2017-Nov-18 03:55N 01°09' E 103°38'0 0.0
2017-Nov-18 03:28N 01°09' E 103°38'0 0.0
2017-Nov-18 02:58N 01°09' E 103°38'0 0.0
2017-Nov-18 02:22N 01°09' E 103°38'0 0.2
2017-Nov-18 02:00N 01°09' E 103°38'1 1.1
2017-Nov-18 01:30N 01°09' E 103°38'0 0.1
2017-Nov-18 01:00N 01°09' E 103°38'0 0.0
2017-Nov-18 00:29N 01°09' E 103°38'0 0.0
2017-Nov-17 23:59N 01°09' E 103°38'0 0.0
2017-Nov-17 23:30N 01°09' E 103°38'0 0.0
2017-Nov-17 22:59N 01°09' E 103°38'0 0.0
2017-Nov-17 22:30N 01°09' E 103°38'0 0.1
2017-Nov-17 22:00N 01°09' E 103°38'0 0.0
2017-Nov-17 21:30N 01°09' E 103°38'0 0.0
2017-Nov-17 21:00N 01°09' E 103°38'0 0.1
2017-Nov-17 20:30N 01°09' E 103°38'0 0.1
2017-Nov-17 19:59N 01°09' E 103°38'0 0.0
2017-Nov-17 19:30N 01°09' E 103°38'0 0.0
2017-Nov-17 19:00N 01°09' E 103°38'0 0.0
2017-Nov-17 18:30N 01°09' E 103°38'0 0.2
2017-Nov-17 18:00N 01°09' E 103°38'0 0.0
2017-Nov-17 17:30N 01°09' E 103°38'0 0.1
2017-Nov-17 17:00N 01°09' E 103°38'0 0.1
2017-Nov-17 16:30N 01°09' E 103°38'0 0.0
2017-Nov-17 16:00N 01°09' E 103°38'0 0.0
2017-Nov-17 15:30N 01°09' E 103°38'0 0.0
2017-Nov-17 15:00N 01°09' E 103°38'0 0.1
2017-Nov-17 14:30N 01°09' E 103°38'0 0.0
2017-Nov-17 14:00N 01°09' E 103°38'0 0.0
2017-Nov-17 13:30N 01°09' E 103°38'0 0.0
2017-Nov-17 13:00N 01°09' E 103°38'0 0.0
2017-Nov-17 12:30N 01°09' E 103°38'0 0.1
2017-Nov-17 11:59N 01°09' E 103°38'0 0.0
2017-Nov-17 11:30N 01°09' E 103°38'0 0.0
2017-Nov-17 11:00N 01°09' E 103°38'0 0.0
2017-Nov-17 10:30N 01°09' E 103°38'0 0.1
2017-Nov-17 10:00N 01°09' E 103°38'0 0.0
2017-Nov-17 09:30N 01°09' E 103°38'0 0.0
2017-Nov-17 09:00N 01°09' E 103°38'0 0.0
2017-Nov-17 08:30N 01°09' E 103°38'0 0.0
2017-Nov-17 08:00N 01°09' E 103°38'0 0.0
2017-Nov-17 07:30N 01°09' E 103°38'0 0.1
2017-Nov-17 07:00N 01°09' E 103°38'0 0.0
2017-Nov-17 06:30N 01°09' E 103°38'0 0.0
2017-Nov-17 06:00N 01°09' E 103°38'0 0.0
2017-Nov-17 05:30N 01°09' E 103°38'0 0.0
2017-Nov-17 05:01N 01°09' E 103°38'2 3.8
2017-Nov-17 04:30N 01°10' E 103°39'0 0.8
2017-Nov-17 04:00N 01°10' E 103°39'0 0.8
2017-Nov-17 03:30N 01°10' E 103°39'4 7.1
2017-Nov-17 03:00N 01°14' E 103°39'0 0.5
2017-Nov-17 02:29N 01°14' E 103°39'0 0.0
2017-Nov-17 01:56N 01°14' E 103°39'0 0.0
2017-Nov-17 01:26N 01°14' E 103°39'0 0.0
2017-Nov-17 00:56N 01°14' E 103°39'0 0.1
2017-Nov-17 00:29N 01°14' E 103°39'0 0.0
2017-Nov-16 23:59N 01°14' E 103°39'0 0.0
2017-Nov-16 23:29N 01°14' E 103°39'0 0.3
2017-Nov-16 22:50N 01°14' E 103°39'0 0.0
2017-Nov-16 22:26N 01°14' E 103°39'0 0.0
2017-Nov-16 21:56N 01°14' E 103°39'0 0.0
2017-Nov-16 21:20N 01°14' E 103°39'0 0.0
2017-Nov-16 20:47N 01°14' E 103°39'0 0.0
2017-Nov-16 20:29N 01°14' E 103°39'0 0.0
2017-Nov-16 19:59N 01°14' E 103°39'0 0.0
2017-Nov-16 19:29N 01°14' E 103°39'0 0.0
2017-Nov-16 18:41N 01°14' E 103°39'0 0.0
2017-Nov-16 18:26N 01°14' E 103°39'0 0.1
2017-Nov-16 17:59N 01°14' E 103°39'0 0.0
2017-Nov-16 17:29N 01°14' E 103°39'0 0.1
2017-Nov-16 16:53N 01°14' E 103°39'0 0.0
2017-Nov-16 16:29N 01°14' E 103°39'0 0.0
2017-Nov-16 15:56N 01°14' E 103°39'1 1.6
2017-Nov-16 15:30N 01°14' E 103°40'1 2.2
2017-Nov-16 14:54N 01°16' E 103°39'0 0.0
2017-Nov-16 14:30N 01°16' E 103°39'0 0.0
2017-Nov-16 13:57N 01°16' E 103°39'0 0.0
2017-Nov-16 13:27N 01°16' E 103°39'0 0.0
2017-Nov-16 12:54N 01°16' E 103°39'0 0.0
2017-Nov-16 12:30N 01°16' E 103°39'0 0.0
2017-Nov-16 11:57N 01°16' E 103°39'0 0.0
2017-Nov-16 11:30N 01°16' E 103°39'0 0.0
2017-Nov-16 10:57N 01°16' E 103°39'0 0.0
2017-Nov-16 10:15N 01°16' E 103°39'0 0.0
2017-Nov-16 09:57N 01°16' E 103°39'0 0.0
2017-Nov-16 09:27N 01°16' E 103°39'0 0.0
2017-Nov-16 08:57N 01°16' E 103°39'0 0.0
2017-Nov-16 08:30N 01°16' E 103°39'0 0.0
2017-Nov-16 07:57N 01°16' E 103°39'0 0.0
2017-Nov-16 07:24N 01°16' E 103°39'0 0.0
2017-Nov-16 06:48N 01°16' E 103°39'0 0.0
2017-Nov-16 06:30N 01°16' E 103°39'0 0.0
2017-Nov-16 05:51N 01°16' E 103°39'0 0.0
2017-Nov-16 05:24N 01°16' E 103°39'0 0.0
2017-Nov-16 04:57N 01°16' E 103°39'0 0.0
2017-Nov-16 04:30N 01°16' E 103°39'0 0.0
2017-Nov-16 03:57N 01°16' E 103°39'0 0.0
2017-Nov-16 03:27N 01°16' E 103°39'0 0.0
2017-Nov-16 02:57N 01°16' E 103°39'0 0.0
2017-Nov-16 02:06N 01°16' E 103°39'0 0.0
2017-Nov-16 01:51N 01°16' E 103°39'0 0.0
2017-Nov-16 01:30N 01°16' E 103°39'0 0.0
2017-Nov-16 00:57N 01°16' E 103°39'0 0.0
2017-Nov-16 00:30N 01°16' E 103°39'0 0.0
2017-Nov-15 23:54N 01°16' E 103°39'0 0.0
2017-Nov-15 23:18N 01°16' E 103°39'0 0.0
2017-Nov-15 22:51N 01°16' E 103°39'0 0.0
2017-Nov-15 22:27N 01°16' E 103°39'0 0.0
2017-Nov-15 21:57N 01°16' E 103°39'0 0.0
2017-Nov-15 21:30N 01°16' E 103°39'0 0.0
2017-Nov-15 20:57N 01°16' E 103°39'0 0.0
2017-Nov-15 20:09N 01°16' E 103°39'0 0.0
2017-Nov-15 19:57N 01°16' E 103°39'0 0.0
2017-Nov-15 19:30N 01°16' E 103°39'0 0.0
2017-Nov-15 18:57N 01°16' E 103°39'0 1.0
2017-Nov-15 18:30N 01°15' E 103°39'2 3.8
2017-Nov-15 18:00N 01°13' E 103°39'0 0.0
2017-Nov-15 17:30N 01°13' E 103°39'0 0.9
2017-Nov-15 17:00N 01°13' E 103°40'4 7.1
2017-Nov-15 16:30N 01°10' E 103°42'4 7.1
2017-Nov-15 16:00N 01°09' E 103°45'5 9.1
2017-Nov-15 15:30N 01°11' E 103°49'5 9.7
2017-Nov-15 15:00N 01°13' E 103°53'5 9.4
2017-Nov-15 14:30N 01°15' E 103°58'  
Track history (hours):
 
Tides and Currents Weather Stations Pressure Air Temp Water Temp Dewpoint Dewpoint Depression Visibility Wind Speed Wind Dir Waves Ship Positions

Sigas Ingrid

Last reported at 2017-Nov-18 13:56 UTC. Time now 2017-Nov-22 14:58 UTC.
Position N 01°19' E 103°19'.

Length 100 m; draft 5.4 m.

Type: Ship (hazmat cat B). MMSI: 477658800.

Date/timePositionNaut miles runAvg speedWind from/ knotsBaromVisibWave heightAir tempDewpointWater temp
2017-Nov-18 13:56N 01°19' E 103°19'512.3
2017-Nov-18 13:30N 01°16' E 103°23'612.7
2017-Nov-18 13:00N 01°14' E 103°29'612.6
2017-Nov-18 12:30N 01°12' E 103°35'4 8.8
2017-Nov-18 12:00N 01°09' E 103°38'0 0.1
2017-Nov-18 10:04N 01°09' E 103°38'0 0.1
2017-Nov-18 08:58N 01°09' E 103°38'0 0.0
2017-Nov-18 08:28N 01°09' E 103°38'0 0.0
2017-Nov-18 07:58N 01°09' E 103°38'0 0.1
2017-Nov-18 07:28N 01°09' E 103°38'0 0.0
2017-Nov-18 06:55N 01°09' E 103°38'0 0.0
2017-Nov-18 06:25N 01°09' E 103°38'0 0.0
2017-Nov-18 05:58N 01°09' E 103°38'0 0.0
2017-Nov-18 05:28N 01°09' E 103°38'0 0.0
2017-Nov-18 04:52N 01°09' E 103°38'0 0.0
2017-Nov-18 04:28N 01°09' E 103°38'0 0.0
2017-Nov-18 03:55N 01°09' E 103°38'0 0.0
2017-Nov-18 03:28N 01°09' E 103°38'0 0.0
2017-Nov-18 02:58N 01°09' E 103°38'0 0.0
2017-Nov-18 02:22N 01°09' E 103°38'0 0.2
2017-Nov-18 02:00N 01°09' E 103°38'1 1.1
2017-Nov-18 01:30N 01°09' E 103°38'0 0.1
2017-Nov-18 01:00N 01°09' E 103°38'0 0.0
2017-Nov-18 00:29N 01°09' E 103°38'0 0.0
2017-Nov-17 23:59N 01°09' E 103°38'0 0.0
2017-Nov-17 23:30N 01°09' E 103°38'0 0.0
2017-Nov-17 22:59N 01°09' E 103°38'0 0.0
2017-Nov-17 22:30N 01°09' E 103°38'0 0.1
2017-Nov-17 22:00N 01°09' E 103°38'0 0.0
2017-Nov-17 21:30N 01°09' E 103°38'0 0.0
2017-Nov-17 21:00N 01°09' E 103°38'0 0.1
2017-Nov-17 20:30N 01°09' E 103°38'0 0.1
2017-Nov-17 19:59N 01°09' E 103°38'0 0.0
2017-Nov-17 19:30N 01°09' E 103°38'0 0.0
2017-Nov-17 19:00N 01°09' E 103°38'0 0.0
2017-Nov-17 18:30N 01°09' E 103°38'0 0.2
2017-Nov-17 18:00N 01°09' E 103°38'0 0.0
2017-Nov-17 17:30N 01°09' E 103°38'0 0.1
2017-Nov-17 17:00N 01°09' E 103°38'0 0.1
2017-Nov-17 16:30N 01°09' E 103°38'0 0.0
2017-Nov-17 16:00N 01°09' E 103°38'0 0.0
2017-Nov-17 15:30N 01°09' E 103°38'0 0.0
2017-Nov-17 15:00N 01°09' E 103°38'0 0.1
2017-Nov-17 14:30N 01°09' E 103°38'0 0.0
2017-Nov-17 14:00N 01°09' E 103°38'0 0.0
2017-Nov-17 13:30N 01°09' E 103°38'0 0.0
2017-Nov-17 13:00N 01°09' E 103°38'0 0.0
2017-Nov-17 12:30N 01°09' E 103°38'0 0.1
2017-Nov-17 11:59N 01°09' E 103°38'0 0.0
2017-Nov-17 11:30N 01°09' E 103°38'0 0.0
2017-Nov-17 11:00N 01°09' E 103°38'0 0.0
2017-Nov-17 10:30N 01°09' E 103°38'0 0.1
2017-Nov-17 10:00N 01°09' E 103°38'0 0.0
2017-Nov-17 09:30N 01°09' E 103°38'0 0.0
2017-Nov-17 09:00N 01°09' E 103°38'0 0.0
2017-Nov-17 08:30N 01°09' E 103°38'0 0.0
2017-Nov-17 08:00N 01°09' E 103°38'0 0.0
2017-Nov-17 07:30N 01°09' E 103°38'0 0.1
2017-Nov-17 07:00N 01°09' E 103°38'0 0.0
2017-Nov-17 06:30N 01°09' E 103°38'0 0.0
2017-Nov-17 06:00N 01°09' E 103°38'0 0.0
2017-Nov-17 05:30N 01°09' E 103°38'0 0.0
2017-Nov-17 05:01N 01°09' E 103°38'2 3.8
2017-Nov-17 04:30N 01°10' E 103°39'0 0.8
2017-Nov-17 04:00N 01°10' E 103°39'0 0.8
2017-Nov-17 03:30N 01°10' E 103°39'4 7.1
2017-Nov-17 03:00N 01°14' E 103°39'0 0.5
2017-Nov-17 02:29N 01°14' E 103°39'0 0.0
2017-Nov-17 01:56N 01°14' E 103°39'0 0.0
2017-Nov-17 01:26N 01°14' E 103°39'0 0.0
2017-Nov-17 00:56N 01°14' E 103°39'0 0.1
2017-Nov-17 00:29N 01°14' E 103°39'0 0.0
2017-Nov-16 23:59N 01°14' E 103°39'0 0.0
2017-Nov-16 23:29N 01°14' E 103°39'0 0.3
2017-Nov-16 22:50N 01°14' E 103°39'0 0.0
2017-Nov-16 22:26N 01°14' E 103°39'0 0.0
2017-Nov-16 21:56N 01°14' E 103°39'0 0.0
2017-Nov-16 21:20N 01°14' E 103°39'0 0.0
2017-Nov-16 20:47N 01°14' E 103°39'0 0.0
2017-Nov-16 20:29N 01°14' E 103°39'0 0.0
2017-Nov-16 19:59N 01°14' E 103°39'0 0.0
2017-Nov-16 19:29N 01°14' E 103°39'0 0.0
2017-Nov-16 18:41N 01°14' E 103°39'0 0.0
2017-Nov-16 18:26N 01°14' E 103°39'0 0.1
2017-Nov-16 17:59N 01°14' E 103°39'0 0.0
2017-Nov-16 17:29N 01°14' E 103°39'0 0.1
2017-Nov-16 16:53N 01°14' E 103°39'0 0.0
2017-Nov-16 16:29N 01°14' E 103°39'0 0.0
2017-Nov-16 15:56N 01°14' E 103°39'1 1.6
2017-Nov-16 15:30N 01°14' E 103°40'1 2.2
2017-Nov-16 14:54N 01°16' E 103°39'0 0.0
2017-Nov-16 14:30N 01°16' E 103°39'0 0.0
2017-Nov-16 13:57N 01°16' E 103°39'0 0.0
2017-Nov-16 13:27N 01°16' E 103°39'0 0.0
2017-Nov-16 12:54N 01°16' E 103°39'0 0.0
2017-Nov-16 12:30N 01°16' E 103°39'0 0.0
2017-Nov-16 11:57N 01°16' E 103°39'0 0.0
2017-Nov-16 11:30N 01°16' E 103°39'0 0.0
2017-Nov-16 10:57N 01°16' E 103°39'0 0.0
2017-Nov-16 10:15N 01°16' E 103°39'0 0.0
2017-Nov-16 09:57N 01°16' E 103°39'0 0.0
2017-Nov-16 09:27N 01°16' E 103°39'0 0.0
2017-Nov-16 08:57N 01°16' E 103°39'0 0.0
2017-Nov-16 08:30N 01°16' E 103°39'0 0.0
2017-Nov-16 07:57N 01°16' E 103°39'0 0.0
2017-Nov-16 07:24N 01°16' E 103°39'0 0.0
2017-Nov-16 06:48N 01°16' E 103°39'0 0.0
2017-Nov-16 06:30N 01°16' E 103°39'0 0.0
2017-Nov-16 05:51N 01°16' E 103°39'0 0.0
2017-Nov-16 05:24N 01°16' E 103°39'0 0.0
2017-Nov-16 04:57N 01°16' E 103°39'0 0.0
2017-Nov-16 04:30N 01°16' E 103°39'0 0.0
2017-Nov-16 03:57N 01°16' E 103°39'0 0.0
2017-Nov-16 03:27N 01°16' E 103°39'0 0.0
2017-Nov-16 02:57N 01°16' E 103°39'0 0.0
2017-Nov-16 02:06N 01°16' E 103°39'0 0.0
2017-Nov-16 01:51N 01°16' E 103°39'0 0.0
2017-Nov-16 01:30N 01°16' E 103°39'0 0.0
2017-Nov-16 00:57N 01°16' E 103°39'0 0.0
2017-Nov-16 00:30N 01°16' E 103°39'0 0.0
2017-Nov-15 23:54N 01°16' E 103°39'0 0.0
2017-Nov-15 23:18N 01°16' E 103°39'0 0.0
2017-Nov-15 22:51N 01°16' E 103°39'0 0.0
2017-Nov-15 22:27N 01°16' E 103°39'0 0.0
2017-Nov-15 21:57N 01°16' E 103°39'0 0.0
2017-Nov-15 21:30N 01°16' E 103°39'0 0.0
2017-Nov-15 20:57N 01°16' E 103°39'0 0.0
2017-Nov-15 20:09N 01°16' E 103°39'0 0.0
2017-Nov-15 19:57N 01°16' E 103°39'0 0.0
2017-Nov-15 19:30N 01°16' E 103°39'0 0.0
2017-Nov-15 18:57N 01°16' E 103°39'0 1.0
2017-Nov-15 18:30N 01°15' E 103°39'2 3.8
2017-Nov-15 18:00N 01°13' E 103°39'0 0.0
2017-Nov-15 17:30N 01°13' E 103°39'0 0.9
2017-Nov-15 17:00N 01°13' E 103°40'4 7.1
2017-Nov-15 16:30N 01°10' E 103°42'4 7.1
2017-Nov-15 16:00N 01°09' E 103°45'5 9.1
2017-Nov-15 15:30N 01°11' E 103°49'5 9.7
2017-Nov-15 15:00N 01°13' E 103°53'5 9.4
2017-Nov-15 14:30N 01°15' E 103°58'  

Dump ship's entire track history